createdAt,value
2022-07-28T00:00:31.222Z,20.61
2022-07-28T00:05:36.574Z,20.60
2022-07-28T00:10:39.959Z,20.52
2022-07-28T00:15:43.292Z,20.52
2022-07-28T00:20:48.120Z,20.50
2022-07-28T00:25:51.370Z,20.49
2022-07-28T00:30:56.376Z,20.43
2022-07-28T00:36:01.148Z,20.48
2022-07-28T00:41:14.160Z,20.46
2022-07-28T00:46:19.680Z,20.45
2022-07-28T00:51:27.864Z,20.31
2022-07-28T00:56:31.828Z,20.26
2022-07-28T01:01:36.022Z,20.08
2022-07-28T01:06:49.025Z,20.28
2022-07-28T01:11:59.444Z,20.15
2022-07-28T01:17:09.132Z,20.13
2022-07-28T01:22:18.699Z,20.05
2022-07-28T01:27:37.102Z,19.99
2022-07-28T01:32:45.408Z,20.05
2022-07-28T01:37:53.433Z,20.05
2022-07-28T01:43:00.437Z,20.03
2022-07-28T01:48:06.912Z,20.08
2022-07-28T01:53:11.942Z,20.10
2022-07-28T01:58:18.249Z,20.22
2022-07-28T02:03:25.456Z,20.36
2022-07-28T02:08:29.773Z,20.47
2022-07-28T02:13:35.206Z,20.71
2022-07-28T02:18:41.368Z,20.79
2022-07-28T02:23:48.828Z,20.90
2022-07-28T02:28:55.497Z,21.03
2022-07-28T02:34:04.377Z,21.27
2022-07-28T02:39:17.097Z,21.47
2022-07-28T02:44:27.588Z,21.64
2022-07-28T02:49:34.930Z,21.68
2022-07-28T02:54:39.083Z,21.77
2022-07-28T02:59:44.091Z,21.99
2022-07-28T03:05:00.916Z,22.14
2022-07-28T03:10:05.366Z,22.22
2022-07-28T03:15:09.670Z,22.35
2022-07-28T03:20:16.020Z,22.63
2022-07-28T03:25:27.795Z,22.76
2022-07-28T03:30:43.549Z,22.85
2022-07-28T03:35:52.952Z,23.00
2022-07-28T03:40:58.855Z,23.39
2022-07-28T03:46:02.404Z,23.76
2022-07-28T03:51:07.162Z,24.08
2022-07-28T03:56:10.566Z,24.27
2022-07-28T04:01:14.122Z,24.51
2022-07-28T04:06:19.294Z,25.71
2022-07-28T04:11:23.354Z,26.28
2022-07-28T04:16:26.846Z,28.01
2022-07-28T04:21:31.682Z,27.85
2022-07-28T04:26:35.012Z,27.35
2022-07-28T04:31:38.566Z,30.79
2022-07-28T04:36:43.746Z,34.65
2022-07-28T04:41:47.067Z,36.14
2022-07-28T04:46:50.426Z,36.84
2022-07-28T04:51:55.159Z,37.48
2022-07-28T04:57:00.808Z,38.74
2022-07-28T05:02:09.082Z,39.31
2022-07-28T05:07:14.073Z,41.10
2022-07-28T05:12:17.447Z,44.22
2022-07-28T05:17:20.768Z,44.45
2022-07-28T05:22:25.513Z,41.18
2022-07-28T05:27:28.785Z,38.10
2022-07-28T05:32:32.084Z,40.33
2022-07-28T05:37:37.770Z,43.17
2022-07-28T05:42:41.118Z,45.25
2022-07-28T05:47:46.421Z,45.97
2022-07-28T05:52:51.905Z,45.30
2022-07-28T05:57:55.347Z,44.24
2022-07-28T06:03:02.168Z,43.34
2022-07-28T06:08:10.621Z,43.14
2022-07-28T06:13:16.413Z,45.30
2022-07-28T06:18:19.974Z,46.91
2022-07-28T06:23:25.157Z,42.84
2022-07-28T06:28:28.465Z,44.31
2022-07-28T06:33:31.917Z,44.14
2022-07-28T06:38:36.774Z,43.87
2022-07-28T06:43:40.253Z,42.18
2022-07-28T06:48:46.073Z,42.50
2022-07-28T06:53:50.897Z,44.08
2022-07-28T06:58:54.215Z,47.00
2022-07-28T07:03:57.894Z,49.16
2022-07-28T07:09:03.001Z,49.07
2022-07-28T07:14:06.335Z,48.24
2022-07-28T07:19:15.452Z,47.30
2022-07-28T07:24:20.530Z,46.66
2022-07-28T07:29:25.823Z,47.06
2022-07-28T07:34:33.860Z,46.16
2022-07-28T07:39:38.629Z,46.72
2022-07-28T07:44:42.134Z,47.85
2022-07-28T07:49:53.801Z,44.66
2022-07-28T07:54:58.665Z,42.80
2022-07-28T08:00:02.122Z,41.10
2022-07-28T08:05:07.010Z,39.44
2022-07-28T08:10:13.120Z,37.54
2022-07-28T08:15:16.626Z,35.84
2022-07-28T08:20:20.126Z,34.79
2022-07-28T08:25:25.675Z,33.64
2022-07-28T08:30:32.736Z,32.87
2022-07-28T08:35:36.663Z,32.06
2022-07-28T08:40:43.580Z,31.76
2022-07-28T08:45:52.543Z,32.32
2022-07-28T08:51:01.803Z,32.73
2022-07-28T08:56:07.931Z,32.12
2022-07-28T09:01:11.664Z,31.80
2022-07-28T09:06:15.434Z,32.14
2022-07-28T09:11:20.214Z,33.06
2022-07-28T09:16:23.845Z,33.84
2022-07-28T09:21:27.308Z,34.27
2022-07-28T09:26:32.124Z,34.00
2022-07-28T09:31:35.531Z,33.36
2022-07-28T09:36:41.569Z,32.96
2022-07-28T09:41:50.695Z,32.66
2022-07-28T09:46:54.541Z,32.87
2022-07-28T09:52:03.204Z,32.81
2022-07-28T09:57:11.863Z,32.77
2022-07-28T10:02:25.490Z,33.39
2022-07-28T10:07:31.319Z,33.39
2022-07-28T10:12:38.340Z,33.51
2022-07-28T10:17:43.315Z,33.90
2022-07-28T10:22:47.297Z,34.02
2022-07-28T10:27:52.675Z,34.21
2022-07-28T10:32:58.387Z,34.00
2022-07-28T10:38:05.659Z,34.26
2022-07-28T10:43:10.563Z,34.49
2022-07-28T10:48:14.306Z,34.45
2022-07-28T10:53:29.203Z,33.81
2022-07-28T10:58:45.322Z,33.66
2022-07-28T11:03:49.604Z,32.93
2022-07-28T11:08:53.851Z,32.54
2022-07-28T11:14:38.993Z,32.78
2022-07-28T11:25:22.413Z,33.25
2022-07-28T11:30:53.719Z,33.17
2022-07-28T11:36:02.164Z,32.74
2022-07-28T11:41:30.119Z,32.55
2022-07-28T11:46:39.934Z,32.18
2022-07-28T11:52:03.497Z,31.41
2022-07-28T11:57:09.954Z,31.06
2022-07-28T12:02:19.029Z,30.73
2022-07-28T12:07:29.308Z,29.80
2022-07-28T12:12:34.667Z,29.79
2022-07-28T12:17:40.647Z,29.63
2022-07-28T12:22:56.664Z,29.63
2022-07-28T12:28:14.237Z,29.99
2022-07-28T12:33:26.182Z,29.86
2022-07-28T12:38:34.580Z,29.59
2022-07-28T12:43:38.232Z,29.58
2022-07-28T12:48:43.145Z,29.37
2022-07-28T12:53:52.476Z,28.93
2022-07-28T12:59:06.413Z,28.69
2022-07-28T13:04:11.404Z,28.07
2022-07-28T13:09:29.940Z,26.92
2022-07-28T13:14:43.929Z,25.40
2022-07-28T13:19:49.622Z,24.02
2022-07-28T13:24:53.254Z,23.47
2022-07-28T13:29:57.354Z,23.21
2022-07-28T13:35:03.554Z,22.92
2022-07-28T13:40:08.172Z,22.75
2022-07-28T13:45:12.292Z,22.86
2022-07-28T13:50:22.056Z,22.96
2022-07-28T13:55:27.577Z,22.73
2022-07-28T14:00:31.320Z,22.57
2022-07-28T14:05:36.788Z,22.20
2022-07-28T14:10:41.981Z,22.35
2022-07-28T14:15:51.945Z,22.50
2022-07-28T14:21:09.323Z,22.72
2022-07-28T14:26:34.870Z,22.80
2022-07-28T14:31:37.633Z,22.62
2022-07-28T14:36:42.489Z,22.87
2022-07-28T14:41:45.868Z,22.77
2022-07-28T14:46:52.501Z,22.82
2022-07-28T14:51:58.002Z,22.80
2022-07-28T14:57:01.520Z,22.77
2022-07-28T15:02:05.250Z,22.74
2022-07-28T15:07:10.288Z,22.84
2022-07-28T15:12:15.441Z,22.81
2022-07-28T15:17:19.759Z,22.65
2022-07-28T15:22:26.446Z,22.74
2022-07-28T15:27:33.648Z,22.75
2022-07-28T15:32:47.492Z,22.87
2022-07-28T15:38:01.183Z,22.98
2022-07-28T15:43:04.663Z,23.01
2022-07-28T15:48:09.040Z,23.10
2022-07-28T15:53:13.786Z,23.33
2022-07-28T15:58:17.174Z,23.41
2022-07-28T16:03:22.763Z,23.23
2022-07-28T16:08:28.363Z,23.33
2022-07-28T16:13:36.840Z,23.48
2022-07-28T16:18:44.054Z,23.55
2022-07-28T16:23:48.808Z,23.48
2022-07-28T16:28:52.182Z,23.38
2022-07-28T16:33:56.905Z,23.35
2022-07-28T16:39:04.246Z,23.34
2022-07-28T16:44:07.702Z,23.26
2022-07-28T16:49:11.129Z,23.24
2022-07-28T16:54:16.227Z,23.03
2022-07-28T16:59:20.826Z,22.71
2022-07-28T17:04:24.406Z,22.48
2022-07-28T17:09:29.142Z,22.28
2022-07-28T17:14:32.606Z,21.99
2022-07-28T17:19:39.827Z,21.61
2022-07-28T17:24:48.480Z,21.34
2022-07-28T17:29:52.866Z,21.12
2022-07-28T17:34:56.213Z,20.87
2022-07-28T17:40:01.198Z,20.80
2022-07-28T17:45:09.418Z,20.65
2022-07-28T17:50:13.639Z,20.52
2022-07-28T17:55:58.030Z,20.65
2022-07-28T18:01:11.065Z,20.52
2022-07-28T18:06:15.118Z,20.52
2022-07-28T18:11:20.187Z,20.52
2022-07-28T18:16:23.631Z,20.50
2022-07-28T18:21:27.153Z,20.51
2022-07-28T18:26:32.234Z,20.50
2022-07-28T18:31:35.662Z,20.45
2022-07-28T18:36:39.112Z,20.42
2022-07-28T18:41:46.029Z,20.50
2022-07-28T18:46:52.573Z,20.48
2022-07-28T18:51:56.183Z,20.46
2022-07-28T18:57:00.971Z,20.34
2022-07-28T19:02:04.472Z,20.12
2022-07-28T19:07:07.875Z,19.80
2022-07-28T19:12:12.893Z,19.73
2022-07-28T19:17:16.227Z,19.61
2022-07-28T19:22:19.868Z,19.51
2022-07-28T19:27:24.654Z,19.44
2022-07-28T19:32:34.444Z,19.36
2022-07-28T19:37:39.057Z,19.17
2022-07-28T19:42:43.813Z,19.11
2022-07-28T19:47:47.216Z,19.02
2022-07-28T19:52:53.272Z,18.98
2022-07-28T19:57:59.385Z,18.94
2022-07-28T20:03:03.448Z,18.83
2022-07-28T20:08:06.897Z,18.70
2022-07-28T20:13:11.977Z,18.68
2022-07-28T20:18:17.242Z,18.42
2022-07-28T20:23:20.622Z,18.48
2022-07-28T20:28:25.424Z,18.49
2022-07-28T20:33:30.092Z,18.43
2022-07-28T20:38:33.408Z,18.42
2022-07-28T20:43:38.647Z,18.49
2022-07-28T20:48:42.087Z,18.57
2022-07-28T20:53:45.389Z,18.71
2022-07-28T20:58:50.178Z,18.81
2022-07-28T21:03:53.457Z,18.83
2022-07-28T21:08:59.974Z,18.84
2022-07-28T21:14:05.032Z,18.92
2022-07-28T21:19:08.805Z,18.93
2022-07-28T21:24:12.423Z,18.94
2022-07-28T21:34:20.303Z,19.00
2022-07-28T21:39:23.644Z,19.01
2022-07-28T21:44:28.505Z,18.95
2022-07-28T21:49:32.499Z,19.04
2022-07-28T21:54:36.711Z,19.08
2022-07-28T21:59:41.445Z,19.14
2022-07-28T22:04:44.779Z,19.10
2022-07-28T22:09:48.127Z,19.04
2022-07-28T22:14:52.972Z,19.04
2022-07-28T22:19:56.350Z,18.95
2022-07-28T22:24:59.816Z,18.86
2022-07-28T22:30:05.391Z,18.86
2022-07-28T22:35:10.803Z,18.80
2022-07-28T22:40:16.205Z,18.68
2022-07-28T22:45:50.619Z,18.44
2022-07-28T22:50:44.638Z,18.10
2022-07-28T22:55:49.412Z,17.85
2022-07-28T23:00:55.029Z,17.66
2022-07-28T23:06:00.193Z,17.51
2022-07-28T23:11:03.582Z,17.36
2022-07-28T23:16:10.493Z,17.26
2022-07-28T23:21:14.051Z,17.06
2022-07-28T23:26:17.492Z,16.93
2022-07-28T23:31:23.036Z,16.81
2022-07-28T23:36:27.884Z,16.68
2022-07-28T23:41:31.582Z,16.60
2022-07-28T23:46:37.117Z,16.53
2022-07-28T23:51:47.581Z,16.43
2022-07-28T23:56:55.255Z,16.38
